sensor_id;sensor_type;location;lat;lon;timestamp;temperature;humidity
32839;DHT22;19182;41.820;12.808;2023-03-05T00:01:09;6.90;99.90
32839;DHT22;19182;41.820;12.808;2023-03-05T00:03:35;6.90;99.90
32839;DHT22;19182;41.820;12.808;2023-03-05T00:06:04;6.90;99.90
32839;DHT22;19182;41.820;12.808;2023-03-05T00:08:30;6.80;99.90
32839;DHT22;19182;41.820;12.808;2023-03-05T00:13:22;6.60;99.90
32839;DHT22;19182;41.820;12.808;2023-03-05T00:15:49;6.60;99.90
32839;DHT22;19182;41.820;12.808;2023-03-05T00:18:16;6.60;99.90
32839;DHT22;19182;41.820;12.808;2023-03-05T00:20:44;6.70;99.90
32839;DHT22;19182;41.820;12.808;2023-03-05T00:23:10;6.70;99.90
32839;DHT22;19182;41.820;12.808;2023-03-05T00:25:37;6.50;99.90
32839;DHT22;19182;41.820;12.808;2023-03-05T00:28:03;6.40;99.90
32839;DHT22;19182;41.820;12.808;2023-03-05T00:30:33;6.40;99.90
32839;DHT22;19182;41.820;12.808;2023-03-05T00:32:59;5.20;99.90
32839;DHT22;19182;41.820;12.808;2023-03-05T00:35:24;6.10;99.90
32839;DHT22;19182;41.820;12.808;2023-03-05T00:37:50;6.10;99.90
32839;DHT22;19182;41.820;12.808;2023-03-05T00:40:16;6.20;99.90
32839;DHT22;19182;41.820;12.808;2023-03-05T00:42:48;6.10;99.90
32839;DHT22;19182;41.820;12.808;2023-03-05T00:45:17;6.10;99.90
32839;DHT22;19182;41.820;12.808;2023-03-05T00:47:42;5.90;99.90
32839;DHT22;19182;41.820;12.808;2023-03-05T00:50:09;5.90;99.90
32839;DHT22;19182;41.820;12.808;2023-03-05T00:52:34;5.90;99.90
32839;DHT22;19182;41.820;12.808;2023-03-05T00:55:00;6.00;99.90
32839;DHT22;19182;41.820;12.808;2023-03-05T00:57:26;5.90;99.90
32839;DHT22;19182;41.820;12.808;2023-03-05T00:59:51;5.90;99.90
32839;DHT22;19182;41.820;12.808;2023-03-05T01:02:17;6.00;99.90
32839;DHT22;19182;41.820;12.808;2023-03-05T01:04:46;5.90;99.90
32839;DHT22;19182;41.820;12.808;2023-03-05T01:07:12;5.90;99.90
32839;DHT22;19182;41.820;12.808;2023-03-05T01:09:39;5.80;99.90
32839;DHT22;19182;41.820;12.808;2023-03-05T01:12:06;5.80;99.90
32839;DHT22;19182;41.820;12.808;2023-03-05T01:14:32;5.70;99.90
32839;DHT22;19182;41.820;12.808;2023-03-05T01:17:01;5.60;99.90
32839;DHT22;19182;41.820;12.808;2023-03-05T01:19:28;5.40;99.90
32839;DHT22;19182;41.820;12.808;2023-03-05T01:21:54;5.50;99.90
32839;DHT22;19182;41.820;12.808;2023-03-05T01:24:20;5.40;99.90
32839;DHT22;19182;41.820;12.808;2023-03-05T01:26:47;5.30;99.90
32839;DHT22;19182;41.820;12.808;2023-03-05T01:29:14;5.20;99.90
32839;DHT22;19182;41.820;12.808;2023-03-05T01:31:40;5.20;99.90
32839;DHT22;19182;41.820;12.808;2023-03-05T01:34:08;5.20;99.90
32839;DHT22;19182;41.820;12.808;2023-03-05T01:36:34;5.20;99.90
32839;DHT22;19182;41.820;12.808;2023-03-05T01:39:00;5.10;99.90
32839;DHT22;19182;41.820;12.808;2023-03-05T01:41:29;5.10;99.90
32839;DHT22;19182;41.820;12.808;2023-03-05T01:43:55;5.00;99.90
32839;DHT22;19182;41.820;12.808;2023-03-05T01:46:29;5.00;99.90
32839;DHT22;19182;41.820;12.808;2023-03-05T01:49:05;5.00;99.90
32839;DHT22;19182;41.820;12.808;2023-03-05T01:51:39;4.90;99.90
32839;DHT22;19182;41.820;12.808;2023-03-05T01:54:08;4.70;99.90
32839;DHT22;19182;41.820;12.808;2023-03-05T01:56:36;4.60;99.90
32839;DHT22;19182;41.820;12.808;2023-03-05T01:59:02;4.50;99.90
32839;DHT22;19182;41.820;12.808;2023-03-05T02:01:37;4.50;99.90
32839;DHT22;19182;41.820;12.808;2023-03-05T02:04:08;4.50;99.90
32839;DHT22;19182;41.820;12.808;2023-03-05T02:06:47;4.50;99.90
32839;DHT22;19182;41.820;12.808;2023-03-05T02:09:14;4.60;99.90
32839;DHT22;19182;41.820;12.808;2023-03-05T02:11:41;4.60;99.90
32839;DHT22;19182;41.820;12.808;2023-03-05T02:14:08;4.60;99.90
32839;DHT22;19182;41.820;12.808;2023-03-05T02:16:34;4.60;99.90
32839;DHT22;19182;41.820;12.808;2023-03-05T02:19:15;4.60;99.90
32839;DHT22;19182;41.820;12.808;2023-03-05T02:21:44;4.40;99.90
32839;DHT22;19182;41.820;12.808;2023-03-05T02:24:14;4.30;99.90
32839;DHT22;19182;41.820;12.808;2023-03-05T02:26:44;4.30;99.90
32839;DHT22;19182;41.820;12.808;2023-03-05T02:29:17;4.30;99.90
32839;DHT22;19182;41.820;12.808;2023-03-05T02:31:44;4.30;99.90
32839;DHT22;19182;41.820;12.808;2023-03-05T02:34:10;4.30;99.90
32839;DHT22;19182;41.820;12.808;2023-03-05T02:36:36;4.30;99.90
32839;DHT22;19182;41.820;12.808;2023-03-05T02:39:03;4.20;99.90
32839;DHT22;19182;41.820;12.808;2023-03-05T02:41:28;4.20;99.90
32839;DHT22;19182;41.820;12.808;2023-03-05T02:43:55;4.20;99.90
32839;DHT22;19182;41.820;12.808;2023-03-05T02:46:21;4.10;99.90
32839;DHT22;19182;41.820;12.808;2023-03-05T02:48:47;4.00;99.90
32839;DHT22;19182;41.820;12.808;2023-03-05T02:51:14;4.00;99.90
32839;DHT22;19182;41.820;12.808;2023-03-05T02:53:40;4.00;99.90
32839;DHT22;19182;41.820;12.808;2023-03-05T02:56:06;2.70;99.90
32839;DHT22;19182;41.820;12.808;2023-03-05T02:58:32;4.00;99.90
32839;DHT22;19182;41.820;12.808;2023-03-05T03:00:57;3.90;99.90
32839;DHT22;19182;41.820;12.808;2023-03-05T03:03:23;3.80;99.90
32839;DHT22;19182;41.820;12.808;2023-03-05T03:05:49;3.80;99.90
32839;DHT22;19182;41.820;12.808;2023-03-05T03:08:15;3.80;99.90
32839;DHT22;19182;41.820;12.808;2023-03-05T03:10:41;3.80;99.90
32839;DHT22;19182;41.820;12.808;2023-03-05T03:13:07;3.70;99.90
32839;DHT22;19182;41.820;12.808;2023-03-05T03:15:33;3.60;99.90
32839;DHT22;19182;41.820;12.808;2023-03-05T03:17:59;3.70;99.90
32839;DHT22;19182;41.820;12.808;2023-03-05T03:20:26;3.60;99.90
32839;DHT22;19182;41.820;12.808;2023-03-05T03:22:54;3.50;99.90
32839;DHT22;19182;41.820;12.808;2023-03-05T03:25:23;3.40;99.90
32839;DHT22;19182;41.820;12.808;2023-03-05T03:27:49;3.40;99.90
32839;DHT22;19182;41.820;12.808;2023-03-05T03:30:15;3.30;99.90
32839;DHT22;19182;41.820;12.808;2023-03-05T03:32:42;3.40;99.90
32839;DHT22;19182;41.820;12.808;2023-03-05T03:35:08;3.40;99.90
32839;DHT22;19182;41.820;12.808;2023-03-05T03:37:35;3.30;99.90
32839;DHT22;19182;41.820;12.808;2023-03-05T03:40:00;3.40;99.90
32839;DHT22;19182;41.820;12.808;2023-03-05T03:42:26;3.40;99.90
32839;DHT22;19182;41.820;12.808;2023-03-05T03:44:52;3.40;99.90
32839;DHT22;19182;41.820;12.808;2023-03-05T03:47:18;3.40;99.90
32839;DHT22;19182;41.820;12.808;2023-03-05T03:49:44;3.40;99.90
32839;DHT22;19182;41.820;12.808;2023-03-05T03:52:13;3.50;99.90
32839;DHT22;19182;41.820;12.808;2023-03-05T03:54:39;3.50;99.90
32839;DHT22;19182;41.820;12.808;2023-03-05T03:57:05;3.20;99.90
32839;DHT22;19182;41.820;12.808;2023-03-05T03:59:31;2.80;99.90
32839;DHT22;19182;41.820;12.808;2023-03-05T04:02:00;2.60;99.90
32839;DHT22;19182;41.820;12.808;2023-03-05T04:04:26;2.60;99.90
32839;DHT22;19182;41.820;12.808;2023-03-05T04:06:53;2.70;99.90
32839;DHT22;19182;41.820;12.808;2023-03-05T04:09:19;2.70;99.90
32839;DHT22;19182;41.820;12.808;2023-03-05T04:11:45;2.80;99.90
32839;DHT22;19182;41.820;12.808;2023-03-05T04:14:13;2.80;99.90
32839;DHT22;19182;41.820;12.808;2023-03-05T04:16:40;2.70;99.90
32839;DHT22;19182;41.820;12.808;2023-03-05T04:19:09;2.80;99.90
32839;DHT22;19182;41.820;12.808;2023-03-05T04:21:35;2.80;99.90
32839;DHT22;19182;41.820;12.808;2023-03-05T04:24:02;2.90;99.90
32839;DHT22;19182;41.820;12.808;2023-03-05T04:26:30;2.90;99.90
32839;DHT22;19182;41.820;12.808;2023-03-05T04:28:56;3.00;99.90
32839;DHT22;19182;41.820;12.808;2023-03-05T04:31:22;2.90;99.90
32839;DHT22;19182;41.820;12.808;2023-03-05T04:33:48;2.90;99.90
32839;DHT22;19182;41.820;12.808;2023-03-05T04:36:14;2.90;99.90
32839;DHT22;19182;41.820;12.808;2023-03-05T04:38:40;2.90;99.90
32839;DHT22;19182;41.820;12.808;2023-03-05T04:41:06;2.90;99.90
32839;DHT22;19182;41.820;12.808;2023-03-05T04:43:35;2.90;99.90
32839;DHT22;19182;41.820;12.808;2023-03-05T04:46:01;2.90;99.90
32839;DHT22;19182;41.820;12.808;2023-03-05T04:48:28;2.90;99.90
32839;DHT22;19182;41.820;12.808;2023-03-05T04:50:54;2.90;99.90
32839;DHT22;19182;41.820;12.808;2023-03-05T04:53:22;3.00;99.90
32839;DHT22;19182;41.820;12.808;2023-03-05T04:55:52;3.00;99.90
32839;DHT22;19182;41.820;12.808;2023-03-05T04:58:19;3.00;99.90
32839;DHT22;19182;41.820;12.808;2023-03-05T05:00:45;2.90;99.90
32839;DHT22;19182;41.820;12.808;2023-03-05T05:03:11;2.90;99.90
32839;DHT22;19182;41.820;12.808;2023-03-05T05:05:37;2.80;99.90
32839;DHT22;19182;41.820;12.808;2023-03-05T05:08:03;2.70;99.90
32839;DHT22;19182;41.820;12.808;2023-03-05T05:10:30;3.90;99.90
32839;DHT22;19182;41.820;12.808;2023-03-05T05:12:56;2.70;99.90
32839;DHT22;19182;41.820;12.808;2023-03-05T05:15:22;2.60;99.90
32839;DHT22;19182;41.820;12.808;2023-03-05T05:17:49;2.50;99.90
32839;DHT22;19182;41.820;12.808;2023-03-05T05:20:16;2.40;99.90
32839;DHT22;19182;41.820;12.808;2023-03-05T05:22:42;2.40;99.90
32839;DHT22;19182;41.820;12.808;2023-03-05T05:25:09;2.50;99.90
32839;DHT22;19182;41.820;12.808;2023-03-05T05:27:36;2.50;99.90
32839;DHT22;19182;41.820;12.808;2023-03-05T05:30:02;2.40;99.90
32839;DHT22;19182;41.820;12.808;2023-03-05T05:32:28;2.40;99.90
32839;DHT22;19182;41.820;12.808;2023-03-05T05:34:57;2.30;99.90
32839;DHT22;19182;41.820;12.808;2023-03-05T05:37:24;2.30;99.90
32839;DHT22;19182;41.820;12.808;2023-03-05T05:39:51;2.30;99.90
32839;DHT22;19182;41.820;12.808;2023-03-05T05:42:18;2.50;99.90
32839;DHT22;19182;41.820;12.808;2023-03-05T05:44:47;2.60;99.90
32839;DHT22;19182;41.820;12.808;2023-03-05T05:47:15;2.60;99.90
32839;DHT22;19182;41.820;12.808;2023-03-05T05:49:41;2.50;99.90
32839;DHT22;19182;41.820;12.808;2023-03-05T05:52:07;2.40;99.90
32839;DHT22;19182;41.820;12.808;2023-03-05T05:54:33;2.40;99.90
32839;DHT22;19182;41.820;12.808;2023-03-05T05:56:59;2.50;99.90
32839;DHT22;19182;41.820;12.808;2023-03-05T05:59:25;2.50;99.90
32839;DHT22;19182;41.820;12.808;2023-03-05T06:01:51;2.50;99.90
32839;DHT22;19182;41.820;12.808;2023-03-05T06:04:17;2.60;99.90
32839;DHT22;19182;41.820;12.808;2023-03-05T06:06:43;2.70;99.90
32839;DHT22;19182;41.820;12.808;2023-03-05T06:09:09;2.90;99.90
32839;DHT22;19182;41.820;12.808;2023-03-05T06:11:36;2.90;99.90
32839;DHT22;19182;41.820;12.808;2023-03-05T06:14:03;2.90;99.90
32839;DHT22;19182;41.820;12.808;2023-03-05T06:16:29;2.80;99.90
32839;DHT22;19182;41.820;12.808;2023-03-05T06:18:55;2.80;99.90
32839;DHT22;19182;41.820;12.808;2023-03-05T06:21:22;2.90;99.90
32839;DHT22;19182;41.820;12.808;2023-03-05T06:23:49;3.10;99.90
32839;DHT22;19182;41.820;12.808;2023-03-05T06:26:17;3.30;99.90
32839;DHT22;19182;41.820;12.808;2023-03-05T06:28:44;3.40;99.90
32839;DHT22;19182;41.820;12.808;2023-03-05T06:31:16;3.50;99.90
32839;DHT22;19182;41.820;12.808;2023-03-05T06:33:43;3.70;99.90
32839;DHT22;19182;41.820;12.808;2023-03-05T06:36:14;3.70;99.90
32839;DHT22;19182;41.820;12.808;2023-03-05T06:38:41;3.80;99.90
32839;DHT22;19182;41.820;12.808;2023-03-05T06:41:10;4.00;99.90
32839;DHT22;19182;41.820;12.808;2023-03-05T06:43:38;4.10;99.90
32839;DHT22;19182;41.820;12.808;2023-03-05T06:46:10;4.20;99.90
32839;DHT22;19182;41.820;12.808;2023-03-05T06:48:36;4.80;99.90
32839;DHT22;19182;41.820;12.808;2023-03-05T06:51:03;5.50;99.90
32839;DHT22;19182;41.820;12.808;2023-03-05T06:53:29;6.10;99.90
32839;DHT22;19182;41.820;12.808;2023-03-05T06:56:00;6.90;99.90
32839;DHT22;19182;41.820;12.808;2023-03-05T06:58:25;7.80;99.90
32839;DHT22;19182;41.820;12.808;2023-03-05T07:00:52;8.60;99.90
32839;DHT22;19182;41.820;12.808;2023-03-05T07:03:18;9.50;99.90
32839;DHT22;19182;41.820;12.808;2023-03-05T07:05:45;10.20;99.90
32839;DHT22;19182;41.820;12.808;2023-03-05T07:08:11;11.00;99.90
32839;DHT22;19182;41.820;12.808;2023-03-05T07:10:41;11.60;99.90
32839;DHT22;19182;41.820;12.808;2023-03-05T07:13:07;12.20;99.90
32839;DHT22;19182;41.820;12.808;2023-03-05T07:15:36;12.70;99.90
32839;DHT22;19182;41.820;12.808;2023-03-05T07:18:03;13.40;99.90
32839;DHT22;19182;41.820;12.808;2023-03-05T07:20:28;14.00;99.90
32839;DHT22;19182;41.820;12.808;2023-03-05T07:22:56;14.70;99.90
32839;DHT22;19182;41.820;12.808;2023-03-05T07:25:21;15.60;99.90
32839;DHT22;19182;41.820;12.808;2023-03-05T07:27:49;15.90;99.90
32839;DHT22;19182;41.820;12.808;2023-03-05T07:30:15;15.60;99.90
32839;DHT22;19182;41.820;12.808;2023-03-05T07:32:41;16.00;99.90
32839;DHT22;19182;41.820;12.808;2023-03-05T07:35:08;16.20;99.90
32839;DHT22;19182;41.820;12.808;2023-03-05T07:37:34;15.50;99.90
32839;DHT22;19182;41.820;12.808;2023-03-05T07:40:00;15.90;99.90
32839;DHT22;19182;41.820;12.808;2023-03-05T07:42:26;16.70;99.90
32839;DHT22;19182;41.820;12.808;2023-03-05T07:44:53;17.60;99.90
32839;DHT22;19182;41.820;12.808;2023-03-05T07:47:19;18.20;99.90
32839;DHT22;19182;41.820;12.808;2023-03-05T07:49:46;18.30;99.90
32839;DHT22;19182;41.820;12.808;2023-03-05T07:52:12;19.10;99.90
32839;DHT22;19182;41.820;12.808;2023-03-05T07:54:38;18.30;99.90
32839;DHT22;19182;41.820;12.808;2023-03-05T07:57:05;18.90;99.90
32839;DHT22;19182;41.820;12.808;2023-03-05T07:59:31;19.60;99.90
32839;DHT22;19182;41.820;12.808;2023-03-05T08:01:57;19.70;99.90
32839;DHT22;19182;41.820;12.808;2023-03-05T08:04:24;19.70;99.90
32839;DHT22;19182;41.820;12.808;2023-03-05T08:06:50;19.50;99.90
32839;DHT22;19182;41.820;12.808;2023-03-05T08:09:17;19.40;99.90
32839;DHT22;19182;41.820;12.808;2023-03-05T08:11:43;20.20;99.90
32839;DHT22;19182;41.820;12.808;2023-03-05T08:14:11;20.10;99.90
32839;DHT22;19182;41.820;12.808;2023-03-05T08:16:38;19.80;99.90
32839;DHT22;19182;41.820;12.808;2023-03-05T08:19:05;19.80;99.90
32839;DHT22;19182;41.820;12.808;2023-03-05T08:21:34;20.30;99.90
32839;DHT22;19182;41.820;12.808;2023-03-05T08:24:05;21.00;99.90
32839;DHT22;19182;41.820;12.808;2023-03-05T08:26:33;20.40;99.90
32839;DHT22;19182;41.820;12.808;2023-03-05T08:29:00;20.20;99.90
32839;DHT22;19182;41.820;12.808;2023-03-05T08:31:28;20.70;99.90
32839;DHT22;19182;41.820;12.808;2023-03-05T08:33:57;21.40;99.90
32839;DHT22;19182;41.820;12.808;2023-03-05T08:36:24;21.10;99.90
32839;DHT22;19182;41.820;12.808;2023-03-05T08:38:50;21.40;99.90
32839;DHT22;19182;41.820;12.808;2023-03-05T08:41:16;21.40;99.90
32839;DHT22;19182;41.820;12.808;2023-03-05T08:43:42;22.20;99.90
32839;DHT22;19182;41.820;12.808;2023-03-05T08:46:12;21.10;99.40
32839;DHT22;19182;41.820;12.808;2023-03-05T08:48:39;21.20;99.90
32839;DHT22;19182;41.820;12.808;2023-03-05T08:51:16;21.60;99.10
32839;DHT22;19182;41.820;12.808;2023-03-05T08:53:43;22.30;99.30
32839;DHT22;19182;41.820;12.808;2023-03-05T08:56:10;21.90;97.80
32839;DHT22;19182;41.820;12.808;2023-03-05T08:58:36;21.90;99.50
32839;DHT22;19182;41.820;12.808;2023-03-05T09:01:03;22.10;99.90
32839;DHT22;19182;41.820;12.808;2023-03-05T09:03:30;22.30;99.50
32839;DHT22;19182;41.820;12.808;2023-03-05T09:06:00;22.60;98.00
32839;DHT22;19182;41.820;12.808;2023-03-05T09:08:26;22.60;97.90
32839;DHT22;19182;41.820;12.808;2023-03-05T09:10:52;22.10;97.60
32839;DHT22;19182;41.820;12.808;2023-03-05T09:13:19;22.00;99.40
32839;DHT22;19182;41.820;12.808;2023-03-05T09:15:52;22.70;97.00
32839;DHT22;19182;41.820;12.808;2023-03-05T09:18:18;22.60;97.20
32839;DHT22;19182;41.820;12.808;2023-03-05T09:20:44;22.50;96.50
32839;DHT22;19182;41.820;12.808;2023-03-05T09:23:10;22.50;97.80
32839;DHT22;19182;41.820;12.808;2023-03-05T09:25:39;22.70;96.40
32839;DHT22;19182;41.820;12.808;2023-03-05T09:28:06;22.60;96.70
32839;DHT22;19182;41.820;12.808;2023-03-05T09:30:33;22.60;96.40
32839;DHT22;19182;41.820;12.808;2023-03-05T09:33:00;22.60;97.10
32839;DHT22;19182;41.820;12.808;2023-03-05T09:35:26;22.40;96.70
32839;DHT22;19182;41.820;12.808;2023-03-05T09:37:53;22.00;97.50
32839;DHT22;19182;41.820;12.808;2023-03-05T09:40:20;21.90;97.60
32839;DHT22;19182;41.820;12.808;2023-03-05T09:48:49;21.60;98.30
32839;DHT22;19182;41.820;12.808;2023-03-05T09:51:28;22.00;97.90
32839;DHT22;19182;41.820;12.808;2023-03-05T09:54:05;22.20;98.20
32839;DHT22;19182;41.820;12.808;2023-03-05T09:56:38;22.30;98.50
32839;DHT22;19182;41.820;12.808;2023-03-05T09:59:42;22.80;96.40
32839;DHT22;19182;41.820;12.808;2023-03-05T10:02:19;22.30;95.20
32839;DHT22;19182;41.820;12.808;2023-03-05T10:05:03;22.80;94.40
32839;DHT22;19182;41.820;12.808;2023-03-05T10:07:37;23.00;94.50
32839;DHT22;19182;41.820;12.808;2023-03-05T10:10:19;22.90;93.50
32839;DHT22;19182;41.820;12.808;2023-03-05T10:12:52;22.80;95.90
32839;DHT22;19182;41.820;12.808;2023-03-05T10:15:43;22.80;95.90
32839;DHT22;19182;41.820;12.808;2023-03-05T10:21:42;22.70;94.90
32839;DHT22;19182;41.820;12.808;2023-03-05T10:24:17;22.00;95.30
32839;DHT22;19182;41.820;12.808;2023-03-05T10:26:55;22.00;93.60
32839;DHT22;19182;41.820;12.808;2023-03-05T10:46:35;22.70;93.50
32839;DHT22;19182;41.820;12.808;2023-03-05T10:49:27;22.20;94.60
32839;DHT22;19182;41.820;12.808;2023-03-05T10:52:09;22.30;93.90
32839;DHT22;19182;41.820;12.808;2023-03-05T10:54:41;22.60;92.80
32839;DHT22;19182;41.820;12.808;2023-03-05T10:57:21;22.10;93.00
32839;DHT22;19182;41.820;12.808;2023-03-05T11:00:25;22.10;91.60
32839;DHT22;19182;41.820;12.808;2023-03-05T11:03:10;22.40;91.30
32839;DHT22;19182;41.820;12.808;2023-03-05T11:05:43;22.20;92.60
32839;DHT22;19182;41.820;12.808;2023-03-05T11:08:32;22.40;90.40
32839;DHT22;19182;41.820;12.808;2023-03-05T11:11:13;22.10;90.60
32839;DHT22;19182;41.820;12.808;2023-03-05T11:14:02;22.30;90.00
32839;DHT22;19182;41.820;12.808;2023-03-05T11:16:33;22.30;85.10
32839;DHT22;19182;41.820;12.808;2023-03-05T11:19:27;22.50;84.70
32839;DHT22;19182;41.820;12.808;2023-03-05T11:22:19;22.30;88.30
32839;DHT22;19182;41.820;12.808;2023-03-05T11:25:13;22.30;87.00
32839;DHT22;19182;41.820;12.808;2023-03-05T11:27:53;22.20;85.30
32839;DHT22;19182;41.820;12.808;2023-03-05T11:30:31;22.20;85.20
32839;DHT22;19182;41.820;12.808;2023-03-05T11:33:29;22.00;85.80
32839;DHT22;19182;41.820;12.808;2023-03-05T11:36:21;21.90;84.00
32839;DHT22;19182;41.820;12.808;2023-03-05T11:39:01;21.90;87.30
32839;DHT22;19182;41.820;12.808;2023-03-05T11:41:52;21.50;86.70
32839;DHT22;19182;41.820;12.808;2023-03-05T11:44:46;21.50;86.20
32839;DHT22;19182;41.820;12.808;2023-03-05T11:53:11;21.00;78.90
32839;DHT22;19182;41.820;12.808;2023-03-05T11:55:47;21.10;79.60
32839;DHT22;19182;41.820;12.808;2023-03-05T11:58:38;21.00;80.10
32839;DHT22;19182;41.820;12.808;2023-03-05T12:01:17;21.00;75.50
32839;DHT22;19182;41.820;12.808;2023-03-05T12:03:44;20.70;78.20
32839;DHT22;19182;41.820;12.808;2023-03-05T12:06:45;20.60;79.40
32839;DHT22;19182;41.820;12.808;2023-03-05T12:11:56;20.40;75.00
32839;DHT22;19182;41.820;12.808;2023-03-05T12:14:34;20.20;76.80
32839;DHT22;19182;41.820;12.808;2023-03-05T12:17:25;20.10;72.60
32839;DHT22;19182;41.820;12.808;2023-03-05T12:20:06;20.10;74.80
32839;DHT22;19182;41.820;12.808;2023-03-05T12:22:40;20.20;75.00
32839;DHT22;19182;41.820;12.808;2023-03-05T12:27:50;20.30;72.30
32839;DHT22;19182;41.820;12.808;2023-03-05T12:33:42;20.30;71.10
32839;DHT22;19182;41.820;12.808;2023-03-05T12:38:53;19.80;77.00
32839;DHT22;19182;41.820;12.808;2023-03-05T12:47:13;20.30;68.60
32839;DHT22;19182;41.820;12.808;2023-03-05T12:49:36;20.50;71.10
32839;DHT22;19182;41.820;12.808;2023-03-05T12:52:02;20.30;71.40
32839;DHT22;19182;41.820;12.808;2023-03-05T12:57:01;20.30;73.80
32839;DHT22;19182;41.820;12.808;2023-03-05T13:00:14;20.50;73.00
32839;DHT22;19182;41.820;12.808;2023-03-05T13:02:57;20.60;71.40
32839;DHT22;19182;41.820;12.808;2023-03-05T13:05:30;20.50;73.20
32839;DHT22;19182;41.820;12.808;2023-03-05T13:10:53;20.50;74.20
32839;DHT22;19182;41.820;12.808;2023-03-05T13:13:19;20.40;73.50
32839;DHT22;19182;41.820;12.808;2023-03-05T13:15:50;20.30;74.90
32839;DHT22;19182;41.820;12.808;2023-03-05T13:18:22;20.10;74.00
32839;DHT22;19182;41.820;12.808;2023-03-05T13:21:32;19.90;76.30
32839;DHT22;19182;41.820;12.808;2023-03-05T13:23:57;19.90;77.50
32839;DHT22;19182;41.820;12.808;2023-03-05T13:26:43;20.00;81.00
32839;DHT22;19182;41.820;12.808;2023-03-05T13:31:38;19.90;77.50
32839;DHT22;19182;41.820;12.808;2023-03-05T13:34:31;19.80;78.90
32839;DHT22;19182;41.820;12.808;2023-03-05T13:37:00;19.30;82.20
32839;DHT22;19182;41.820;12.808;2023-03-05T13:39:29;19.20;83.20
32839;DHT22;19182;41.820;12.808;2023-03-05T13:42:00;19.00;83.10
32839;DHT22;19182;41.820;12.808;2023-03-05T13:44:26;18.90;84.10
32839;DHT22;19182;41.820;12.808;2023-03-05T13:47:05;18.70;85.00
32839;DHT22;19182;41.820;12.808;2023-03-05T13:49:36;18.60;84.40
32839;DHT22;19182;41.820;12.808;2023-03-05T13:52:02;18.50;84.80
32839;DHT22;19182;41.820;12.808;2023-03-05T13:54:29;18.50;84.80
32839;DHT22;19182;41.820;12.808;2023-03-05T13:59:26;18.10;87.00
32839;DHT22;19182;41.820;12.808;2023-03-05T14:01:54;18.00;84.70
32839;DHT22;19182;41.820;12.808;2023-03-05T14:04:34;17.90;87.30
32839;DHT22;19182;41.820;12.808;2023-03-05T14:12:05;17.50;88.00
32839;DHT22;19182;41.820;12.808;2023-03-05T14:14:37;17.30;88.80
32839;DHT22;19182;41.820;12.808;2023-03-05T14:20:27;17.20;89.40
32839;DHT22;19182;41.820;12.808;2023-03-05T14:22:59;17.00;89.40
32839;DHT22;19182;41.820;12.808;2023-03-05T14:25:26;16.90;89.40
32839;DHT22;19182;41.820;12.808;2023-03-05T14:27:53;16.60;87.50
32839;DHT22;19182;41.820;12.808;2023-03-05T14:30:20;16.50;88.80
32839;DHT22;19182;41.820;12.808;2023-03-05T14:32:47;16.50;90.10
32839;DHT22;19182;41.820;12.808;2023-03-05T14:35:19;16.50;91.30
32839;DHT22;19182;41.820;12.808;2023-03-05T14:37:47;16.30;92.10
32839;DHT22;19182;41.820;12.808;2023-03-05T14:43:00;16.10;94.90
32839;DHT22;19182;41.820;12.808;2023-03-05T14:45:29;15.90;96.10
32839;DHT22;19182;41.820;12.808;2023-03-05T14:47:57;15.80;97.40
32839;DHT22;19182;41.820;12.808;2023-03-05T14:50:29;15.60;98.10
32839;DHT22;19182;41.820;12.808;2023-03-05T14:52:58;15.50;99.90
32839;DHT22;19182;41.820;12.808;2023-03-05T14:55:27;15.50;99.80
32839;DHT22;19182;41.820;12.808;2023-03-05T14:58:20;15.40;99.90
32839;DHT22;19182;41.820;12.808;2023-03-05T15:00:47;15.50;99.90
32839;DHT22;19182;41.820;12.808;2023-03-05T15:03:16;15.40;99.90
32839;DHT22;19182;41.820;12.808;2023-03-05T15:05:43;15.30;99.90
32839;DHT22;19182;41.820;12.808;2023-03-05T15:08:30;15.20;99.90
32839;DHT22;19182;41.820;12.808;2023-03-05T15:10:57;15.20;99.90
32839;DHT22;19182;41.820;12.808;2023-03-05T15:13:22;15.00;99.90
32839;DHT22;19182;41.820;12.808;2023-03-05T15:15:49;15.00;99.90
32839;DHT22;19182;41.820;12.808;2023-03-05T15:18:18;14.80;99.90
32839;DHT22;19182;41.820;12.808;2023-03-05T15:20:45;14.70;99.90
32839;DHT22;19182;41.820;12.808;2023-03-05T15:23:12;14.70;99.90
32839;DHT22;19182;41.820;12.808;2023-03-05T15:25:39;14.70;99.90
32839;DHT22;19182;41.820;12.808;2023-03-05T15:28:05;14.60;99.90
32839;DHT22;19182;41.820;12.808;2023-03-05T15:30:36;13.70;99.90
32839;DHT22;19182;41.820;12.808;2023-03-05T15:33:05;14.60;99.90
32839;DHT22;19182;41.820;12.808;2023-03-05T15:35:31;14.40;99.90
32839;DHT22;19182;41.820;12.808;2023-03-05T15:37:57;14.30;99.90
32839;DHT22;19182;41.820;12.808;2023-03-05T15:40:23;14.20;99.90
32839;DHT22;19182;41.820;12.808;2023-03-05T15:42:49;14.20;99.90
32839;DHT22;19182;41.820;12.808;2023-03-05T15:45:16;14.20;99.90
32839;DHT22;19182;41.820;12.808;2023-03-05T15:47:44;14.10;99.90
32839;DHT22;19182;41.820;12.808;2023-03-05T15:50:10;14.00;99.90
32839;DHT22;19182;41.820;12.808;2023-03-05T15:52:36;13.90;99.90
32839;DHT22;19182;41.820;12.808;2023-03-05T15:55:05;13.90;99.90
32839;DHT22;19182;41.820;12.808;2023-03-05T15:57:35;13.90;99.90
32839;DHT22;19182;41.820;12.808;2023-03-05T16:00:06;13.90;99.90
32839;DHT22;19182;41.820;12.808;2023-03-05T16:02:32;13.90;99.90
32839;DHT22;19182;41.820;12.808;2023-03-05T16:04:58;13.80;99.90
32839;DHT22;19182;41.820;12.808;2023-03-05T16:07:24;13.30;99.90
32839;DHT22;19182;41.820;12.808;2023-03-05T16:09:50;13.70;99.90
32839;DHT22;19182;41.820;12.808;2023-03-05T16:12:21;13.60;99.90
32839;DHT22;19182;41.820;12.808;2023-03-05T16:14:49;14.30;99.90
32839;DHT22;19182;41.820;12.808;2023-03-05T16:17:15;13.40;99.90
32839;DHT22;19182;41.820;12.808;2023-03-05T16:19:45;13.40;99.90
32839;DHT22;19182;41.820;12.808;2023-03-05T16:22:11;13.40;99.90
32839;DHT22;19182;41.820;12.808;2023-03-05T16:24:36;13.30;99.90
32839;DHT22;19182;41.820;12.808;2023-03-05T16:27:03;13.20;99.90
32839;DHT22;19182;41.820;12.808;2023-03-05T16:29:29;13.20;99.90
32839;DHT22;19182;41.820;12.808;2023-03-05T16:31:57;13.10;99.90
32839;DHT22;19182;41.820;12.808;2023-03-05T16:34:24;13.10;99.90
32839;DHT22;19182;41.820;12.808;2023-03-05T16:36:50;13.00;99.90
32839;DHT22;19182;41.820;12.808;2023-03-05T16:39:18;12.90;99.90
32839;DHT22;19182;41.820;12.808;2023-03-05T16:41:44;12.80;99.90
32839;DHT22;19182;41.820;12.808;2023-03-05T16:44:10;12.60;99.90
32839;DHT22;19182;41.820;12.808;2023-03-05T16:46:37;12.50;99.90
32839;DHT22;19182;41.820;12.808;2023-03-05T16:49:03;12.40;99.90
32839;DHT22;19182;41.820;12.808;2023-03-05T16:51:30;12.20;99.90